Home   Weather   Australia   Dubbo   Past weeks
Flag for Australia

Past Weather in Dubbo, New South Wales, Australia — Yesterday and Last 2 Weeks

Currently: 70 °F. Sunny. (Weather station: Dubbo Airport, Australia). See more current weather

Past Weather in Dubbo — Graph

°F

Dubbo Temperature Yesterday

Maximum temperature yesterday: 61 °F (at 12:30 pm)
Minimum temperature yesterday: 36 °F (at 5:00 am)
Average temperature yesterday: 49 °F

High & Low Weather Summary for the Past Weeks

  Temperature Humidity Pressure
High 81 °F (Apr 25, 3:00 pm) 100% (Apr 25, 5:30 am) 30.45 "Hg (Apr 25, 5:30 am)
Low 36 °F (May 8, 5:00 am) 26% (Apr 27, 1:30 pm) 29.98 "Hg (May 4, 1:30 pm)
Average 61 °F 65% 30.22 "Hg
* Reported Apr 24 1:00 pm — May 9 1:30 pm, Dubbo. Weather by CustomWeather, © 2026

Note: Actual official high and low records may vary slightly from our data, if they occured in-between our weather recording intervals... More about our weather records

Dubbo Weather History for the Previous 24 Hours

Scroll right to see more
  Conditions Comfort    
Time   Temp Weather Wind   Humidity Barometer Visibility
1:30 pm
Sat, May 9
68 °F Sunny. 5 mph 40% 30.21 "Hg N/A
1:00 pm 66 °F Sunny. 5 mph 43% 30.24 "Hg N/A
12:30 pm 66 °F Sunny. 6 mph 43% 30.24 "Hg N/A
12:00 pm 66 °F Sunny. 3 mph 46% 30.27 "Hg N/A
11:30 am 64 °F Sunny. 6 mph 49% 30.27 "Hg N/A
11:00 am 63 °F Sunny. 7 mph 52% 30.27 "Hg N/A
10:30 am 61 °F Sunny. 7 mph 55% 30.30 "Hg N/A
10:00 am 59 °F Sunny. 7 mph 63% 30.30 "Hg N/A
9:30 am 55 °F Sunny. 7 mph 72% 30.30 "Hg N/A
9:00 am 54 °F Sunny. 6 mph 77% 30.30 "Hg N/A
8:30 am 50 °F Sunny. 6 mph 88% 30.30 "Hg N/A
8:00 am 46 °F Sunny. 7 mph 100% 30.30 "Hg N/A
7:30 am 45 °F Sunny. 5 mph 100% 30.27 "Hg N/A
7:00 am 41 °F Sunny. 5 mph 100% 30.27 "Hg N/A
6:30 am 39 °F Clear. 6 mph 100% 30.27 "Hg N/A
6:10 am 39 °F Clear. 3 mph 100% 30.24 "Hg N/A
6:00 am 41 °F Fog. 1 mph 100% 30.24 "Hg 2 mi
5:30 am 41 °F Clear. 3 mph 100% 30.24 "Hg N/A
5:00 am 41 °F Clear. 1 mph 100% 30.24 "Hg N/A
4:30 am 41 °F Clear. 6 mph 100% 30.24 "Hg N/A
4:00 am 43 °F Clear. 5 mph 93% 30.24 "Hg N/A
3:30 am 45 °F Clear. 7 mph 100% 30.24 "Hg N/A
3:00 am 43 °F Clear. 1 mph 100% 30.24 "Hg N/A
2:30 am 43 °F Clear. 3 mph 100% 30.24 "Hg N/A
2:00 am 43 °F Clear. No wind 100% 30.24 "Hg N/A
1:30 am 46 °F Clear. 3 mph 100% 30.24 "Hg N/A
1:00 am 45 °F Clear. 7 mph 100% 30.24 "Hg N/A
12:30 am 46 °F Clear. 6 mph 100% 30.24 "Hg N/A
12:00 am 48 °F Clear. 7 mph 94% 30.24 "Hg N/A
11:30 pm
Fri, May 8
50 °F Clear. 9 mph 88% 30.24 "Hg N/A
11:00 pm 48 °F Passing clouds. 8 mph 87% 30.24 "Hg N/A
10:30 pm 48 °F Clear. 6 mph 87% 30.27 "Hg N/A
10:00 pm 50 °F Clear. 7 mph 82% 30.27 "Hg N/A
9:30 pm 52 °F Passing clouds. 8 mph 77% 30.24 "Hg N/A
9:00 pm 54 °F Overcast. 8 mph 72% 30.24 "Hg N/A
8:30 pm 54 °F Overcast. 6 mph 77% 30.24 "Hg N/A
8:00 pm 50 °F Passing clouds. 5 mph 82% 30.24 "Hg N/A
7:30 pm 52 °F Clear. 6 mph 77% 30.24 "Hg N/A
7:00 pm 54 °F Partly cloudy. 7 mph 67% 30.24 "Hg N/A
6:30 pm 57 °F Mostly cloudy. 6 mph 63% 30.24 "Hg N/A
6:00 pm 57 °F Mostly cloudy. 7 mph 63% 30.21 "Hg N/A
5:30 pm 57 °F Overcast. 8 mph 63% 30.21 "Hg N/A
5:00 pm 57 °F Overcast. 8 mph 59% 30.21 "Hg N/A
4:30 pm 57 °F Overcast. 9 mph 59% 30.21 "Hg N/A
4:00 pm 59 °F Overcast. 13 mph 55% 30.21 "Hg N/A
3:30 pm 59 °F Overcast. 14 mph 55% 30.21 "Hg N/A
3:00 pm 59 °F Overcast. 14 mph 55% 30.18 "Hg N/A
2:30 pm 61 °F Partly sunny. 13 mph 52% 30.18 "Hg N/A
2:00 pm 59 °F Scattered clouds. 15 mph 55% 30.18 "Hg N/A
Weather by CustomWeather, © 2026

See weather overview